Terminal Aerodrome Forecast
Issued by NWS

Home | Current Version | Previous Version | Text Only | Print | Product List | Glossary On
Versions: 1 2 3 4 5 6 7 8 9 10 11 12 13 14 15
000
FTUS42 KMLB 240527
TAFTIX
TAF
KTIX 240527Z 2406/2506 20004KT P6SM VCSH SCT025 BKN100 BKN250
     FM241000 21004KT P6SM SCT035 BKN070
     FM241500 25007KT P6SM VCSH BKN035
     FM242100 32007KT P6SM SCT035 BKN080
      AMD NOT SKED TIL 241100=

USA.gov is the U.S. government's official web portal to all federal, state and local government web resources and services.